Time;durP1;ratioP1;P1;durP2;ratioP2;P2;SDS_P1;SDS_P2;PMS_P1;PMS_P2;Temp;Humidity;BMP_temperature;BMP_pressure;BME280_temperature;BME280_humidity;BME280_pressure;Samples;Min_cycle;Max_cycle;Signal;HPM_P1;HPM_P2
2022/10/17 00:01:37;;;;;;;19.92;9.27;;;;;;;18.10;53.16;99225.44;5299940;27;20060;-81
2022/10/17 00:04:04;;;;;;;19.15;10.25;;;;;;;17.71;54.41;99225.81;5299834;27;20118;-81
2022/10/17 00:06:31;;;;;;;21.98;9.55;;;;;;;17.33;55.44;99236.44;5280524;27;20064;-81
2022/10/17 00:08:58;;;;;;;23.45;10.70;;;;;;;17.85;54.48;99231.97;5299807;27;20067;-81
2022/10/17 00:11:25;;;;;;;24.42;11.80;;;;;;;18.30;53.55;99233.03;5299550;27;20049;-81
2022/10/17 00:13:54;;;;;;;23.00;11.27;;;;;;;17.62;55.49;99235.78;5299643;27;20075;-81
2022/10/17 00:16:36;;;;;;;24.17;12.80;;;;;;;17.64;55.50;99235.69;5299804;27;20053;-81
2022/10/17 00:19:04;;;;;;;31.62;13.20;;;;;;;18.35;53.07;99228.38;5299863;27;20114;-81
2022/10/17 00:21:31;;;;;;;35.42;14.05;;;;;;;18.62;51.80;99231.22;5280475;27;20046;-81
2022/10/17 00:23:59;;;;;;;32.95;14.07;;;;;;;18.09;53.00;99228.97;5299845;27;20057;-81
2022/10/17 00:26:29;;;;;;;33.45;13.95;;;;;;;17.31;55.30;99233.91;5299825;27;20072;-81
2022/10/17 00:28:56;;;;;;;46.67;18.48;;;;;;;17.35;55.51;99232.00;5299859;27;20057;-81
2022/10/17 00:31:24;;;;;;;58.38;19.52;;;;;;;17.26;55.74;99232.47;5299799;27;20053;-81
2022/10/17 00:33:51;;;;;;;46.58;17.95;;;;;;;17.24;55.66;99236.94;5299750;27;20058;-81
2022/10/17 00:36:21;;;;;;;37.47;16.45;;;;;;;17.29;55.43;99232.31;5299666;27;20061;-81
2022/10/17 00:38:52;;;;;;;25.58;12.15;;;;;;;17.27;55.26;99232.38;5299765;27;20067;-81
2022/10/17 00:41:22;;;;;;;62.17;21.17;;;;;;;17.85;53.14;99231.13;5299604;27;20041;-81
2022/10/17 00:43:54;;;;;;;41.42;15.63;;;;;;;18.61;51.32;99232.16;5299889;27;20057;-81
2022/10/17 00:46:26;;;;;;;27.08;11.63;;;;;;;17.94;52.51;99228.03;5280504;27;20065;-81
2022/10/17 00:48:55;;;;;;;32.35;12.43;;;;;;;17.47;53.87;99233.13;5299809;27;20068;-81
2022/10/17 00:51:28;;;;;;;25.40;11.07;;;;;;;17.26;55.00;99232.47;5280311;27;20045;-81
2022/10/17 00:53:55;;;;;;;31.77;13.85;;;;;;;17.01;56.40;99238.94;5299845;27;20076;-81
2022/10/17 00:56:22;;;;;;;37.78;14.82;;;;;;;17.32;56.26;99242.56;5299745;27;20057;-81
2022/10/17 00:58:49;;;;;;;40.95;16.45;;;;;;;17.15;56.55;99237.38;5299655;27;20054;-81
2022/10/17 01:01:16;;;;;;;40.15;15.05;;;;;;;16.96;57.03;99240.91;5280392;27;20060;-81
2022/10/17 01:03:43;;;;;;;32.67;13.65;;;;;;;17.16;56.74;99239.91;5299651;27;20120;-81
2022/10/17 01:06:10;;;;;;;26.90;12.30;;;;;;;18.21;53.67;99238.75;5299737;27;20065;-81
2022/10/17 01:08:37;;;;;;;30.65;13.32;;;;;;;18.05;53.98;99240.50;5299729;27;20418;-81
2022/10/17 01:11:29;;;;;;;32.72;13.52;;;;;;;17.86;54.09;99235.41;5299717;27;20045;-81
2022/10/17 01:14:02;;;;;;;31.10;13.45;;;;;;;17.42;55.41;99243.78;5280200;27;20076;-81
2022/10/17 01:17:18;;;;;;;30.05;13.80;;;;;;;17.68;54.05;99231.16;5299785;27;20064;-81
2022/10/17 01:20:04;;;;;;;27.98;13.25;;;;;;;17.81;54.25;99227.84;5210593;27;20088;-81
2022/10/17 01:23:24;;;;;;;29.52;13.52;;;;;;;17.82;54.41;99221.69;5193071;27;20061;-81
2022/10/17 01:26:04;;;;;;;22.67;11.80;;;;;;;17.53;55.49;99224.97;5190825;27;20112;-80
2022/10/17 01:28:54;;;;;;;24.02;11.95;;;;;;;17.18;57.09;99219.81;5280271;27;20095;-81
2022/10/17 01:31:35;;;;;;;23.20;10.90;;;;;;;17.43;56.75;99224.59;5299746;27;20059;-81
2022/10/17 01:34:08;;;;;;;24.58;11.50;;;;;;;16.89;58.26;99229.09;5280036;27;20049;-81
2022/10/17 01:36:38;;;;;;;25.75;11.48;;;;;;;16.31;60.18;99223.25;5299728;27;20061;-81
2022/10/17 01:39:07;;;;;;;25.45;12.13;;;;;;;16.29;60.06;99210.28;5299527;27;20067;-81
2022/10/17 01:41:39;;;;;;;25.25;11.75;;;;;;;16.43;59.70;99218.28;5299333;27;20053;-81
2022/10/17 01:44:23;;;;;;;24.55;12.27;;;;;;;15.69;60.73;99211.34;5299725;27;20046;-81
2022/10/17 01:47:12;;;;;;;27.45;11.23;;;;;;;17.11;56.94;99220.19;5299682;27;20065;-81
2022/10/17 01:49:42;;;;;;;21.80;11.18;;;;;;;17.23;55.52;99217.81;5299390;27;20426;-81
2022/10/17 01:52:14;;;;;;;21.92;11.27;;;;;;;16.73;56.61;99212.53;5280122;27;20053;-81
2022/10/17 01:54:54;;;;;;;21.58;10.38;;;;;;;16.45;57.32;99215.59;5280037;27;20044;-81
2022/10/17 01:57:35;;;;;;;23.95;10.95;;;;;;;17.24;54.19;99214.28;5279998;27;20428;-81
2022/10/17 02:00:04;;;;;;;23.00;10.88;;;;;;;16.94;54.86;99210.63;5299264;27;20064;-81
2022/10/17 02:02:31;;;;;;;21.35;10.45;;;;;;;16.27;56.39;99212.12;5280105;27;20053;-81
2022/10/17 02:05:00;;;;;;;22.42;10.70;;;;;;;16.34;56.54;99213.50;5279835;27;20056;-81
2022/10/17 02:07:32;;;;;;;23.98;10.05;;;;;;;16.83;54.95;99212.94;5280927;27;20072;-81
2022/10/17 02:09:59;;;;;;;17.62;8.85;;;;;;;16.53;55.26;99220.44;5299224;27;20062;-81
2022/10/17 02:12:35;;;;;;;20.70;9.27;;;;;;;16.04;56.66;99222.75;5280001;27;20053;-81
2022/10/17 02:15:30;;;;;;;22.37;11.25;;;;;;;14.94;61.53;99225.00;5299156;27;20087;-81
2022/10/17 02:18:18;;;;;;;26.35;9.50;;;;;;;15.36;59.73;99221.47;5299295;27;20061;-81
2022/10/17 02:20:48;;;;;;;21.90;9.52;;;;;;;16.06;57.04;99224.41;5279935;27;20087;-81
2022/10/17 02:23:44;;;;;;;18.37;8.73;;;;;;;16.39;55.15;99226.34;5299339;27;20524;-81
2022/10/17 02:26:32;;;;;;;21.58;9.48;;;;;;;16.17;55.50;99227.34;5299110;27;20066;-81
2022/10/17 02:29:08;;;;;;;17.85;8.68;;;;;;;16.19;55.30;99232.47;5279916;27;20524;-81
2022/10/17 02:31:39;;;;;;;19.52;9.15;;;;;;;16.71;52.97;99230.03;5299354;27;20053;-81
2022/10/17 02:34:17;;;;;;;18.92;9.23;;;;;;;16.97;51.79;99233.94;5299636;27;20049;-81
2022/10/17 02:36:51;;;;;;;18.40;8.52;;;;;;;16.40;53.29;99228.84;5280782;27;20319;-81
2022/10/17 02:39:19;;;;;;;18.05;8.55;;;;;;;16.43;53.76;99233.91;5280735;27;20065;-81
2022/10/17 02:41:48;;;;;;;16.60;8.30;;;;;;;17.02;52.85;99231.97;5280555;27;20061;-81
2022/10/17 02:44:15;;;;;;;13.85;7.25;;;;;;;16.59;54.26;99228.81;5280783;27;20049;-81
2022/10/17 02:46:47;;;;;;;14.98;7.28;;;;;;;17.16;53.25;99231.25;5300289;27;20068;-81
2022/10/17 02:49:21;;;;;;;16.17;7.47;;;;;;;16.62;54.00;99225.22;5280632;27;20061;-81
2022/10/17 02:51:51;;;;;;;23.00;8.85;;;;;;;16.62;55.01;99230.44;5280847;27;20064;-81
2022/10/17 02:54:18;;;;;;;32.15;13.25;;;;;;;16.86;54.83;99228.41;5280633;27;20065;-81
2022/10/17 02:56:50;;;;;;;25.62;10.88;;;;;;;16.59;55.82;99227.94;5300131;27;20384;-81
2022/10/17 02:59:20;;;;;;;25.33;10.32;;;;;;;16.23;56.70;99226.19;5280730;27;20471;-81
2022/10/17 03:01:50;;;;;;;26.05;10.63;;;;;;;16.43;56.36;99226.09;5280972;27;20407;-81
2022/10/17 03:04:17;;;;;;;59.15;20.73;;;;;;;16.72;54.86;99224.72;5280796;27;20080;-81
2022/10/17 03:06:46;;;;;;;58.20;21.00;;;;;;;16.67;56.14;99224.06;5300180;27;20407;-81
2022/10/17 03:09:13;;;;;;;52.38;19.98;;;;;;;16.30;57.89;99216.34;5300018;27;20061;-81
2022/10/17 03:11:40;;;;;;;60.35;20.15;;;;;;;16.49;57.92;99223.22;5300165;27;20071;-81
2022/10/17 03:14:07;;;;;;;48.05;17.95;;;;;;;16.09;58.89;99221.66;5280368;27;20114;-81
2022/10/17 03:16:34;;;;;;;61.95;21.52;;;;;;;16.14;59.42;99224.03;5300181;27;20421;-81
2022/10/17 03:19:01;;;;;;;85.53;26.45;;;;;;;16.64;56.93;99224.22;5299966;27;20070;-80
2022/10/17 03:21:28;;;;;;;76.62;26.65;;;;;;;17.23;54.60;99230.03;5300072;27;20392;-81
2022/10/17 03:23:55;;;;;;;69.75;25.77;;;;;;;16.88;55.50;99222.19;5300106;27;20063;-81
2022/10/17 03:26:22;;;;;;;51.40;20.70;;;;;;;17.13;54.90;99237.47;5300102;27;20121;-81
2022/10/17 03:28:49;;;;;;;50.47;20.50;;;;;;;16.19;57.54;99233.31;5300009;27;20066;-81
2022/10/17 03:31:20;;;;;;;53.87;20.23;;;;;;;16.12;58.17;99233.66;5300128;27;20060;-81
2022/10/17 03:33:47;;;;;;;40.30;14.95;;;;;;;15.92;58.41;99242.38;5280547;27;20053;-81
2022/10/17 03:36:16;;;;;;;35.95;15.43;;;;;;;15.92;58.23;99250.19;5299832;27;20391;-81
2022/10/17 03:38:43;;;;;;;40.85;15.20;;;;;;;15.67;57.93;99257.44;5299695;27;20065;-81
2022/10/17 03:41:10;;;;;;;41.90;17.05;;;;;;;15.84;57.42;99254.91;5280658;27;20064;-81
2022/10/17 03:43:41;;;;;;;44.58;16.25;;;;;;;15.86;57.48;99255.69;5299876;27;20050;-81
2022/10/17 03:46:08;;;;;;;25.52;12.35;;;;;;;16.49;55.57;99256.25;5299365;27;20049;-81
2022/10/17 03:48:35;;;;;;;21.48;9.60;;;;;;;16.83;53.13;99265.91;5280583;27;20066;-81
2022/10/17 03:51:04;;;;;;;18.27;8.70;;;;;;;16.48;54.04;99254.53;5299969;27;20114;-81
2022/10/17 03:53:32;;;;;;;18.42;7.75;;;;;;;16.96;52.30;99264.38;5299937;27;20044;-81
2022/10/17 03:56:11;;;;;;;15.65;7.20;;;;;;;16.83;53.17;99260.69;5299794;27;20047;-81
2022/10/17 03:58:39;;;;;;;17.30;8.15;;;;;;;16.30;55.02;99258.84;5299918;27;20070;-81
2022/10/17 04:01:08;;;;;;;18.55;8.88;;;;;;;15.76;57.11;99264.81;5299936;27;20057;-81
2022/10/17 04:03:35;;;;;;;22.73;10.77;;;;;;;15.16;59.28;99269.97;5299823;27;20063;-81
2022/10/17 04:06:03;;;;;;;22.10;10.13;;;;;;;14.25;63.55;99268.41;5299657;27;20042;-81
2022/10/17 04:08:30;;;;;;;25.98;12.52;;;;;;;14.53;62.87;99274.25;5299893;27;20400;-81
2022/10/17 04:11:01;;;;;;;26.12;11.35;;;;;;;14.54;63.13;99267.31;5300086;27;20157;-81
2022/10/17 04:13:28;;;;;;;28.17;11.05;;;;;;;15.48;59.27;99280.75;5299813;27;20042;-81
2022/10/17 04:16:01;;;;;;;23.35;10.18;;;;;;;16.33;55.28;99286.50;5299769;27;20066;-81
2022/10/17 04:18:28;;;;;;;21.27;10.18;;;;;;;15.82;56.97;99287.97;5299896;27;20076;-81
2022/10/17 04:20:55;;;;;;;20.50;10.05;;;;;;;15.53;57.59;99284.03;5280547;27;20065;-81
2022/10/17 04:23:22;;;;;;;21.42;10.85;;;;;;;15.44;57.84;99287.84;5299859;27;20045;-81
2022/10/17 04:25:49;;;;;;;74.15;15.60;;;;;;;15.59;57.12;99286.34;5299680;27;20132;-81
2022/10/17 04:28:16;;;;;;;52.70;13.60;;;;;;;15.47;57.36;99286.88;5299821;27;20076;-81
2022/10/17 04:30:43;;;;;;;38.00;11.93;;;;;;;14.08;62.38;99295.00;5299789;27;20418;-81
2022/10/17 04:33:11;;;;;;;21.95;10.85;;;;;;;14.93;59.20;99293.47;5299765;27;20049;-81
2022/10/17 04:35:38;;;;;;;29.58;10.02;;;;;;;15.39;57.96;99294.16;5299590;27;20071;-81
2022/10/17 04:38:05;;;;;;;22.83;10.10;;;;;;;15.75;56.10;99297.81;5299947;27;20061;-81
2022/10/17 04:40:32;;;;;;;23.65;10.02;;;;;;;15.67;55.21;99296.44;5299726;27;20109;-81
2022/10/17 04:42:59;;;;;;;20.23;9.50;;;;;;;15.43;55.97;99300.94;5299549;27;20048;-81
2022/10/17 04:45:25;;;;;;;22.95;10.65;;;;;;;15.24;56.39;99304.28;5299760;27;20056;-81
2022/10/17 04:47:52;;;;;;;21.83;9.45;;;;;;;15.20;56.49;99300.13;5299742;27;20056;-81
2022/10/17 04:50:19;;;;;;;20.90;8.43;;;;;;;15.79;54.38;99304.56;5299760;27;20053;-81
2022/10/17 04:52:46;;;;;;;21.95;9.57;;;;;;;16.35;51.07;99293.34;5299646;27;20514;-81
2022/10/17 04:55:13;;;;;;;21.90;9.30;;;;;;;16.34;50.68;99296.00;5299499;27;20076;-80
2022/10/17 04:57:40;;;;;;;26.20;9.50;;;;;;;15.86;52.10;99299.94;5299689;27;20497;-80
2022/10/17 05:00:08;;;;;;;22.23;10.40;;;;;;;15.39;53.43;99297.59;5299665;27;20079;-80
2022/10/17 05:02:40;;;;;;;25.77;12.45;;;;;;;15.05;55.05;99304.19;5281283;27;20068;-80
2022/10/17 05:05:07;;;;;;;19.55;9.70;;;;;;;14.84;56.27;99312.03;5299523;27;20049;-81
2022/10/17 05:07:34;;;;;;;21.02;9.80;;;;;;;14.81;56.95;99310.41;5299889;27;20113;-81
2022/10/17 05:10:01;;;;;;;23.70;11.68;;;;;;;15.61;54.96;99321.81;5299745;27;20061;-80
2022/10/17 05:12:27;;;;;;;24.87;12.07;;;;;;;15.08;56.31;99317.97;5299733;27;20312;-81
2022/10/17 05:14:55;;;;;;;26.08;11.18;;;;;;;15.16;56.26;99324.56;5299381;27;20042;-81
2022/10/17 05:17:22;;;;;;;25.37;11.60;;;;;;;14.09;60.80;99327.84;5299662;27;20061;-81
2022/10/17 05:19:48;;;;;;;23.42;11.60;;;;;;;13.26;64.75;99329.87;5299697;27;20099;-80
2022/10/17 05:22:15;;;;;;;25.02;9.95;;;;;;;12.36;68.90;99330.97;5299703;27;20399;-81
2022/10/17 05:24:42;;;;;;;23.60;11.25;;;;;;;13.76;64.09;99342.88;5299616;27;20049;-81
2022/10/17 05:27:09;;;;;;;22.52;11.40;;;;;;;15.10;58.47;99334.34;5299823;27;20114;-81
2022/10/17 05:29:36;;;;;;;28.17;11.77;;;;;;;15.75;55.15;99342.03;5299613;27;20080;-81
2022/10/17 05:32:03;;;;;;;24.95;11.30;;;;;;;15.46;55.08;99342.41;5299610;27;20046;-81
2022/10/17 05:34:30;;;;;;;20.80;10.07;;;;;;;15.85;53.99;99350.31;5299369;27;20044;-81
2022/10/17 05:36:56;;;;;;;22.55;10.43;;;;;;;15.78;53.97;99360.13;5299710;27;20084;-81
2022/10/17 05:39:23;;;;;;;19.27;9.85;;;;;;;14.94;56.20;99360.97;5280138;27;20092;-81
2022/10/17 05:41:51;;;;;;;22.95;9.60;;;;;;;15.24;55.96;99360.66;5299204;27;20056;-81
2022/10/17 05:44:18;;;;;;;27.60;10.82;;;;;;;15.01;56.10;99359.81;5299411;27;20054;-81
2022/10/17 05:46:47;;;;;;;28.23;13.65;;;;;;;15.03;56.42;99362.34;5299623;27;20061;-81
2022/10/17 05:49:15;;;;;;;26.85;13.32;;;;;;;15.20;56.86;99369.47;5299497;27;20079;-81
2022/10/17 05:52:02;;;;;;;27.70;12.70;;;;;;;15.54;59.72;99368.94;5298601;27;20064;-81
2022/10/17 05:54:31;;;;;;;32.05;14.52;;;;;;;16.20;58.24;99377.38;5279339;27;20430;-81
2022/10/17 05:57:04;;;;;;;56.72;25.12;;;;;;;17.22;55.09;99383.03;5299409;27;20320;-80
2022/10/17 05:59:36;;;;;;;46.40;22.13;;;;;;;18.21;52.32;99387.66;5299167;27;20406;-81
2022/10/17 06:02:04;;;;;;;43.55;19.75;;;;;;;17.72;54.76;99389.31;5299258;27;20063;-81
2022/10/17 06:04:31;;;;;;;33.83;16.02;;;;;;;18.08;54.24;99397.06;5298920;27;20146;-81
2022/10/17 06:06:58;;;;;;;41.13;19.27;;;;;;;19.82;49.17;99397.88;5298640;27;20057;-83
2022/10/17 06:09:25;;;;;;;42.03;19.65;;;;;;;20.82;45.69;99400.50;5298826;27;20053;-83
2022/10/17 06:11:52;;;;;;;41.00;17.20;;;;;;;21.82;44.19;99412.31;5299098;27;20057;-84
2022/10/17 06:14:19;;;;;;;35.53;14.90;;;;;;;22.44;43.22;99416.88;5299129;27;20045;-84
2022/10/17 06:16:46;;;;;;;29.33;14.43;;;;;;;22.72;42.22;99416.59;5299510;27;20114;-84
2022/10/17 06:19:13;;;;;;;27.02;13.18;;;;;;;23.44;41.01;99408.78;5298494;27;20113;-83
2022/10/17 06:21:39;;;;;;;26.08;12.48;;;;;;;24.20;39.50;99412.72;5299098;27;20572;-84
2022/10/17 06:24:07;;;;;;;20.52;10.98;;;;;;;24.68;38.58;99420.44;5298861;27;20076;-84
2022/10/17 06:26:34;;;;;;;18.17;10.18;;;;;;;25.43;37.60;99420.53;5299681;27;20063;-84
2022/10/17 06:29:01;;;;;;;19.75;11.00;;;;;;;25.82;36.33;99423.47;5298131;27;20065;-84
2022/10/17 06:31:28;;;;;;;24.17;12.05;;;;;;;25.48;36.99;99428.06;5299525;27;20049;-85
2022/10/17 06:33:55;;;;;;;20.83;10.40;;;;;;;24.51;38.80;99427.03;5298625;27;20049;-85
2022/10/17 06:36:22;;;;;;;19.77;10.30;;;;;;;23.36;41.20;99432.22;5299210;27;20061;-85
2022/10/17 06:38:49;;;;;;;19.17;10.38;;;;;;;23.64;40.48;99434.53;5298589;27;20447;-85
2022/10/17 06:41:18;;;;;;;16.17;9.52;;;;;;;24.93;38.14;99441.28;5299438;27;20049;-84
2022/10/17 06:43:48;;;;;;;18.27;9.60;;;;;;;25.91;36.35;99439.41;5297496;27;20053;-84
2022/10/17 06:46:18;;;;;;;21.52;9.85;;;;;;;26.39;35.93;99446.84;5280242;27;20054;-88
2022/10/17 06:48:45;;;;;;;17.75;10.18;;;;;;;24.69;38.36;99440.59;5298821;27;20073;-85
2022/10/17 06:51:12;;;;;;;21.60;9.95;;;;;;;24.12;40.37;99441.47;5299240;27;20400;-85
2022/10/17 06:53:39;;;;;;;21.05;9.75;;;;;;;21.84;45.93;99454.25;5298872;27;20142;-85
2022/10/17 06:56:07;;;;;;;17.60;10.32;;;;;;;21.22;47.63;99446.88;5299068;27;20062;-85
2022/10/17 06:58:37;;;;;;;20.00;10.15;;;;;;;20.77;50.34;99455.88;5279099;27;20069;-85
2022/10/17 07:01:16;;;;;;;18.48;10.13;;;;;;;21.16;49.11;99463.03;5300044;27;20048;-86
2022/10/17 07:03:58;;;;;;;20.60;10.38;;;;;;;20.45;51.62;99465.72;5297026;27;20096;-86
2022/10/17 07:06:25;;;;;;;19.62;11.23;;;;;;;21.88;47.71;99464.44;5298502;27;20113;-86
2022/10/17 07:08:52;;;;;;;21.42;11.05;;;;;;;19.97;52.56;99469.44;5298594;27;20072;-86
2022/10/17 07:11:20;;;;;;;20.08;10.52;;;;;;;20.59;50.73;99468.34;5279331;27;20049;-85
2022/10/17 07:13:47;;;;;;;19.80;10.13;;;;;;;20.85;50.32;99465.91;5299533;27;20054;-86
2022/10/17 07:16:15;;;;;;;19.30;10.65;;;;;;;20.15;52.33;99471.00;5299242;27;20072;-85
2022/10/17 07:18:42;;;;;;;23.15;10.88;;;;;;;20.57;51.92;99474.63;5299031;27;20062;-83
2022/10/17 07:21:09;;;;;;;20.25;9.95;;;;;;;20.33;51.74;99475.16;5299073;27;20063;-84
2022/10/17 07:23:36;;;;;;;18.62;10.38;;;;;;;19.96;53.19;99471.22;5299308;27;20053;-85
2022/10/17 07:26:07;;;;;;;18.52;10.43;;;;;;;20.42;52.31;99479.00;5298607;27;20077;-85
2022/10/17 07:28:36;;;;;;;21.25;11.55;;;;;;;20.90;50.81;99484.81;5299622;27;20376;-85
2022/10/17 07:31:08;;;;;;;22.73;11.12;;;;;;;20.21;53.29;99492.44;5299478;27;20447;-84
2022/10/17 07:33:35;;;;;;;27.37;11.63;;;;;;;20.43;52.69;99486.78;5299435;27;20441;-85
2022/10/17 07:36:04;;;;;;;22.50;11.18;;;;;;;19.27;56.34;99485.63;5299042;27;20061;-86
2022/10/17 07:38:31;;;;;;;22.55;11.18;;;;;;;19.30;55.62;99484.59;5298159;27;20324;-84
2022/10/17 07:40:59;;;;;;;22.17;11.70;;;;;;;18.91;57.51;99496.31;5299179;27;20395;-85
2022/10/17 07:43:27;;;;;;;25.15;11.38;;;;;;;19.35;56.08;99485.16;5299032;27;20403;-84
2022/10/17 07:45:54;;;;;;;26.12;11.85;;;;;;;18.88;57.09;99498.25;5278767;27;20084;-84
2022/10/17 07:48:22;;;;;;;24.73;12.20;;;;;;;19.10;56.57;99493.53;5299576;27;20640;-85
2022/10/17 07:50:49;;;;;;;22.17;11.75;;;;;;;19.44;55.31;99492.50;5300457;27;20056;-88
2022/10/17 07:53:17;;;;;;;19.58;11.80;;;;;;;19.99;53.52;99492.03;5299233;27;20056;-77
2022/10/17 07:55:45;;;;;;;20.48;10.70;;;;;;;19.89;54.21;99496.97;5298546;27;20053;-78
2022/10/17 07:58:13;;;;;;;21.55;11.07;;;;;;;20.43;52.55;99491.19;5279085;27;20136;-78
2022/10/17 08:00:39;;;;;;;23.35;10.98;;;;;;;20.20;53.23;99487.28;5298539;27;20063;-78
2022/10/17 08:03:07;;;;;;;22.95;11.90;;;;;;;19.55;56.62;99494.53;5299388;27;20399;-78
2022/10/17 08:05:34;;;;;;;21.90;11.32;;;;;;;22.10;49.34;99492.78;5299426;27;20058;-79
2022/10/17 08:08:01;;;;;;;21.92;11.50;;;;;;;20.92;52.36;99491.63;5298656;27;20434;-79
2022/10/17 08:10:28;;;;;;;21.10;11.55;;;;;;;21.91;49.66;99487.91;5298543;27;20061;-78
2022/10/17 08:12:56;;;;;;;26.02;11.80;;;;;;;22.35;49.24;99494.62;5299162;27;20049;-78
2022/10/17 08:15:26;;;;;;;19.95;11.23;;;;;;;22.20;49.12;99493.00;5299238;27;20075;-78
2022/10/17 08:17:58;;;;;;;23.10;11.70;;;;;;;22.01;49.63;99500.41;5299011;27;20124;-78
2022/10/17 08:20:25;;;;;;;21.50;11.48;;;;;;;21.88;50.47;99490.72;5299011;27;20053;-77
2022/10/17 08:22:55;;;;;;;20.35;11.25;;;;;;;21.16;52.12;99501.53;5299204;27;20063;-78
2022/10/17 08:25:23;;;;;;;17.73;11.25;;;;;;;21.62;51.06;99497.69;5299477;27;20404;-78
2022/10/17 08:27:50;;;;;;;20.62;12.23;;;;;;;21.99;50.10;99499.69;5298844;27;20061;-78
2022/10/17 08:30:17;;;;;;;20.02;11.12;;;;;;;21.40;51.27;99499.19;5298053;27;20448;-78
2022/10/17 08:32:44;;;;;;;15.88;6.62;;;;;;;23.08;47.50;99502.69;5299005;27;20046;-78
2022/10/17 08:35:11;;;;;;;14.40;7.45;;;;;;;22.82;44.48;99501.00;5298762;27;20065;-78
2022/10/17 08:37:38;;;;;;;13.75;6.68;;;;;;;23.80;43.11;99500.09;5299534;27;20117;-78
2022/10/17 08:40:05;;;;;;;13.85;5.95;;;;;;;25.42;39.89;99499.91;5298591;27;20049;-78
2022/10/17 08:42:32;;;;;;;12.68;6.72;;;;;;;25.50;41.52;99500.94;5299015;27;20102;-78
2022/10/17 08:45:31;;;;;;;14.85;6.12;;;;;;;26.81;37.04;99505.81;5298863;27;20061;-78
2022/10/17 08:47:59;;;;;;;11.45;5.85;;;;;;;26.98;35.00;99498.19;5298875;27;20426;-78
2022/10/17 08:50:37;;;;;;;10.90;5.28;;;;;;;25.58;36.68;99498.53;5297996;27;20396;-79
2022/10/17 08:53:23;;;;;;;10.73;4.75;;;;;;;27.12;35.37;99502.34;5279577;27;20052;-78
2022/10/17 08:58:37;;;;;;;11.75;5.32;;;;;;;25.66;35.61;99489.97;5276554;26;20073;-78
2022/10/17 09:01:04;;;;;;;11.45;5.47;;;;;;;24.80;36.83;99491.56;5276631;27;20064;-78
2022/10/17 09:04:07;;;;;;;11.88;4.68;;;;;;;25.53;35.56;99495.44;5276800;27;20042;-78
2022/10/17 09:06:40;;;;;;;14.00;4.72;;;;;;;25.65;35.86;99491.78;5277338;27;20080;-79
2022/10/17 09:09:38;;;;;;;12.60;4.90;;;;;;;26.56;34.48;99500.09;5297789;27;20359;-78
2022/10/17 09:12:16;;;;;;;11.85;4.82;;;;;;;25.90;35.34;99498.56;5298567;27;20466;-78
2022/10/17 09:14:54;;;;;;;10.25;4.57;;;;;;;27.14;33.10;99506.50;5299156;27;20052;-78
2022/10/17 09:17:33;;;;;;;10.43;4.75;;;;;;;26.66;32.82;99496.53;5296298;27;20644;-78
2022/10/17 09:20:11;;;;;;;11.07;4.65;;;;;;;26.99;32.32;99505.16;5298549;27;20053;-77
2022/10/17 09:22:51;;;;;;;11.07;4.70;;;;;;;27.29;33.34;99515.75;5279787;27;20068;-78
2022/10/17 09:25:19;;;;;;;11.57;4.57;;;;;;;27.48;31.22;99503.50;5298966;27;20102;-77
2022/10/17 09:31:00;;;;;;;10.65;4.75;;;;;;;26.74;33.16;99506.47;5254610;27;20155;-78
2022/10/17 09:33:49;;;;;;;11.10;5.03;;;;;;;27.07;32.76;99516.81;5254380;27;20053;-78
2022/10/17 09:36:23;;;;;;;12.32;4.95;;;;;;;27.05;32.84;99520.56;5257828;27;20392;-78
2022/10/17 09:38:55;;;;;;;11.18;4.80;;;;;;;26.81;33.33;99512.91;5276983;27;20075;-79
2022/10/17 09:41:35;;;;;;;10.55;5.00;;;;;;;26.65;33.85;99510.75;5276875;27;20409;-80
2022/10/17 09:44:29;;;;;;;8.90;4.60;;;;;;;26.16;34.16;99506.97;5277216;27;20113;-80
2022/10/17 09:47:17;;;;;;;10.73;5.12;;;;;;;26.86;33.70;99517.81;5277144;27;20053;-79
2022/10/17 09:49:57;;;;;;;9.80;5.05;;;;;;;27.28;32.41;99521.19;5276564;27;20057;-79
2022/10/17 09:52:35;;;;;;;10.80;5.30;;;;;;;28.07;31.31;99513.16;5276664;27;20087;-78
2022/10/17 09:55:21;;;;;;;11.40;5.07;;;;;;;28.42;30.82;99515.25;5277012;27;20403;-78
2022/10/17 09:57:57;;;;;;;9.95;4.20;;;;;;;27.85;32.24;99516.94;5241983;26;20072;-80
2022/10/17 10:00:31;;;;;;;11.23;5.00;;;;;;;26.79;31.79;99507.72;5275900;27;20095;-80
2022/10/17 10:03:26;;;;;;;13.57;5.30;;;;;;;26.14;33.64;99503.59;5276771;27;20584;-79
2022/10/17 10:09:33;;;;;;;10.57;5.07;;;;;;;26.38;33.15;99511.31;5256956;27;20057;-79
2022/10/17 10:12:34;;;;;;;14.05;5.50;;;;;;;26.77;34.06;99507.03;5240716;27;20057;-80
2022/10/17 10:15:29;;;;;;;10.85;5.40;;;;;;;27.22;32.42;99511.97;5257837;27;20033;-80
2022/10/17 10:18:34;;;;;;;11.93;5.62;;;;;;;27.94;31.25;99510.81;5281066;26;20068;-80
2022/10/17 10:26:58;;;;;;;11.60;4.53;;;;;;;26.42;35.28;99514.53;5251514;27;20113;-79
2022/10/17 10:29:29;;;;;;;12.07;5.60;;;;;;;27.35;32.79;99519.69;5297838;27;20067;-79
2022/10/17 10:32:21;;;;;;;9.43;4.57;;;;;;;27.83;31.82;99521.56;5298618;27;20106;-80
2022/10/17 10:35:17;;;;;;;10.65;5.12;;;;;;;26.53;33.47;99525.03;5297328;27;20061;-79
2022/10/17 10:37:52;;;;;;;10.77;5.12;;;;;;;26.96;33.45;99511.56;5279143;27;20079;-79
2022/10/17 10:40:26;;;;;;;11.23;5.40;;;;;;;26.91;33.66;99523.56;5297612;27;20098;-79
2022/10/17 10:42:58;;;;;;;11.70;5.20;;;;;;;27.13;34.28;99530.50;5279054;27;20065;-79
2022/10/17 10:45:37;;;;;;;10.02;4.90;;;;;;;26.57;35.41;99525.59;5297510;27;20065;-80
2022/10/17 10:48:35;;;;;;;11.80;5.50;;;;;;;26.84;33.72;99517.94;5298809;27;20061;-79
2022/10/17 10:51:16;;;;;;;11.50;5.35;;;;;;;27.52;33.55;99523.44;5279443;27;20102;-84
2022/10/17 10:54:21;;;;;;;30.42;6.30;;;;;;;26.95;32.90;99517.84;5298195;27;20050;-85
2022/10/17 10:56:59;;;;;;;11.35;5.65;;;;;;;26.43;35.10;99510.91;5298348;27;20065;-84
2022/10/17 10:59:40;;;;;;;12.57;5.55;;;;;;;26.80;34.61;99508.59;5298562;27;20114;-85
2022/10/17 11:02:14;;;;;;;13.38;5.57;;;;;;;26.91;33.72;99502.38;5299219;27;20093;-84
2022/10/17 11:04:47;;;;;;;10.52;4.87;;;;;;;26.41;35.30;99510.22;5299425;27;20045;-82
2022/10/17 11:07:16;;;;;;;15.13;5.35;;;;;;;26.01;35.51;99510.03;5279180;27;20072;-85
2022/10/17 11:09:59;;;;;;;9.95;4.82;;;;;;;26.62;34.81;99505.72;5278466;27;20069;-85
2022/10/17 11:12:33;;;;;;;11.70;5.35;;;;;;;25.68;35.47;99499.44;5280361;27;20049;-85
2022/10/17 11:15:33;;;;;;;14.65;5.47;;;;;;;25.78;35.64;99496.94;5279685;27;20110;-85
2022/10/17 11:18:03;;;;;;;11.68;5.15;;;;;;;26.07;35.77;99498.97;5298960;27;20056;-84
2022/10/17 11:20:47;;;;;;;14.05;5.37;;;;;;;25.79;35.66;99505.69;5298555;27;20120;-85
2022/10/17 11:23:27;;;;;;;12.63;5.15;;;;;;;26.81;34.87;99505.81;5299367;27;20412;-81
2022/10/17 11:25:56;;;;;;;10.50;4.93;;;;;;;26.57;34.52;99504.44;5299076;27;20470;-82
2022/10/17 11:28:24;;;;;;;10.75;4.65;;;;;;;26.17;35.01;99505.16;5278258;27;20057;-81
2022/10/17 11:31:08;;;;;;;12.45;5.37;;;;;;;26.64;34.29;99498.47;5279112;27;20114;-81
2022/10/17 11:34:00;;;;;;;13.77;4.90;;;;;;;26.05;35.57;99490.28;5299177;27;20049;-80
2022/10/17 11:36:35;;;;;;;10.07;4.10;;;;;;;26.08;35.21;99490.91;5298508;27;20049;-81
2022/10/17 11:39:14;;;;;;;12.60;5.10;;;;;;;26.29;34.41;99490.06;5278549;27;20057;-81
2022/10/17 11:42:07;;;;;;;10.18;4.50;;;;;;;26.94;33.81;99491.50;5280582;27;20061;-81
2022/10/17 11:44:38;;;;;;;11.77;4.90;;;;;;;25.80;36.00;99483.56;5298819;27;20138;-81
2022/10/17 11:47:29;;;;;;;10.52;5.10;;;;;;;25.90;35.40;99474.75;5279268;27;20045;-81
2022/10/17 11:50:12;;;;;;;10.75;5.20;;;;;;;26.39;35.16;99488.34;5298466;27;20067;-81
2022/10/17 11:53:12;;;;;;;14.73;4.60;;;;;;;25.48;35.87;99471.19;5298927;27;20071;-82
2022/10/17 11:55:42;;;;;;;13.62;4.85;;;;;;;25.95;35.54;99474.38;5298933;27;20098;-82
2022/10/17 11:58:33;;;;;;;11.30;4.40;;;;;;;26.13;34.90;99480.75;5278819;27;20052;-83
2022/10/17 12:01:39;;;;;;;10.90;4.65;;;;;;;26.46;34.65;99476.22;5281002;27;20065;-84
2022/10/17 12:04:33;;;;;;;9.63;4.43;;;;;;;26.25;34.10;99471.78;5306396;27;20078;-82